createdAt,value
2019-06-01T00:00:11.377Z,78.81
2019-06-01T00:02:35.953Z,79.07
2019-06-01T00:05:06.122Z,78.89
2019-06-01T00:07:34.886Z,79.07
2019-06-01T00:10:05.096Z,78.34
2019-06-01T00:12:33.798Z,78.95
2019-06-01T00:15:02.818Z,78.81
2019-06-01T00:17:31.519Z,79.19
2019-06-01T00:20:00.261Z,79.09
2019-06-01T00:22:28.969Z,78.79
2019-06-01T00:24:57.689Z,79.37
2019-06-01T00:27:26.404Z,79.98
2019-06-01T00:29:55.105Z,80.56
2019-06-01T00:32:23.849Z,81.28
2019-06-01T00:34:52.655Z,82.04
2019-06-01T00:37:21.362Z,82.19
2019-06-01T00:39:50.083Z,82.81
2019-06-01T00:42:19.298Z,81.97
2019-06-01T00:44:48.513Z,80.84
2019-06-01T00:47:17.328Z,80.41
2019-06-01T00:49:46.726Z,80.13
2019-06-01T00:52:18.460Z,79.90
2019-06-01T00:54:47.379Z,79.63
2019-06-01T00:57:16.089Z,79.83
2019-06-01T00:59:45.894Z,79.30
2019-06-01T01:02:14.745Z,79.27
2019-06-01T01:04:44.281Z,78.69
2019-06-01T01:07:13.130Z,78.32
2019-06-01T01:09:41.878Z,78.06
2019-06-01T01:12:10.696Z,78.47
2019-06-01T01:14:39.407Z,77.68
2019-06-01T01:17:08.138Z,77.78
2019-06-01T01:19:36.842Z,77.71
2019-06-01T01:22:06.251Z,77.90
2019-06-01T01:24:35.010Z,77.94
2019-06-01T01:27:03.713Z,77.42
2019-06-01T01:29:32.425Z,77.23
2019-06-01T01:32:01.170Z,77.24
2019-06-01T01:34:29.881Z,77.53
2019-06-01T01:36:58.584Z,77.19
2019-06-01T01:39:27.335Z,77.44
2019-06-01T01:41:56.340Z,77.25
2019-06-01T01:44:25.014Z,77.11
2019-06-01T01:46:54.876Z,77.01
2019-06-01T01:49:23.661Z,76.38
2019-06-01T01:51:52.889Z,76.54
2019-06-01T01:54:21.704Z,77.07
2019-06-01T01:56:50.410Z,76.48
2019-06-01T01:59:19.118Z,76.77
2019-06-01T02:01:47.866Z,77.26
2019-06-01T02:04:16.573Z,77.29
2019-06-01T02:06:45.276Z,77.81
2019-06-01T02:09:14.021Z,78.90
2019-06-01T02:11:42.747Z,78.14
2019-06-01T02:14:11.454Z,78.52
2019-06-01T02:16:40.199Z,78.17
2019-06-01T02:19:08.906Z,77.52
2019-06-01T02:21:37.612Z,78.12
2019-06-01T02:24:06.357Z,77.94
2019-06-01T02:26:35.067Z,78.20
2019-06-01T02:29:04.343Z,78.21
2019-06-01T02:31:41.577Z,78.19
2019-06-01T02:34:06.042Z,78.21
2019-06-01T02:36:34.171Z,78.16
2019-06-01T02:39:05.287Z,78.34
2019-06-01T02:41:34.122Z,78.16
2019-06-01T02:44:03.912Z,78.11
2019-06-01T02:46:35.760Z,77.79
2019-06-01T02:49:04.232Z,77.62
2019-06-01T02:51:34.170Z,78.15
2019-06-01T02:54:04.073Z,77.89
2019-06-01T02:56:32.921Z,78.17
2019-06-01T02:59:02.335Z,78.64
2019-06-01T03:01:36.470Z,78.35
2019-06-01T03:04:08.378Z,77.90
2019-06-01T03:06:39.355Z,78.14
2019-06-01T03:09:10.050Z,77.83
2019-06-01T03:11:40.568Z,78.34
2019-06-01T03:14:11.179Z,77.90
2019-06-01T03:16:41.938Z,77.89
2019-06-01T03:19:12.134Z,75.93
2019-06-01T03:21:43.606Z,74.85
2019-06-01T03:24:13.561Z,73.62
2019-06-01T03:26:44.758Z,72.42
2019-06-01T03:29:18.856Z,72.12
2019-06-01T03:31:47.682Z,70.39
2019-06-01T03:34:16.391Z,70.27
2019-06-01T03:36:45.235Z,69.22
2019-06-01T03:39:13.942Z,67.94
2019-06-01T03:41:42.746Z,67.01
2019-06-01T03:44:12.820Z,65.58
2019-06-01T03:46:41.791Z,64.82
2019-06-01T03:49:11.862Z,65.08
2019-06-01T03:51:40.809Z,63.53
2019-06-01T03:54:10.138Z,63.33
2019-06-01T03:56:38.998Z,62.42
2019-06-01T03:59:07.745Z,61.80
2019-06-01T04:01:36.456Z,61.00
2019-06-01T04:04:05.575Z,60.28
2019-06-01T04:06:34.296Z,59.13
2019-06-01T04:09:03.618Z,58.39
2019-06-01T04:11:32.384Z,58.10
2019-06-01T04:14:01.546Z,57.85
2019-06-01T04:16:30.322Z,57.37
2019-06-01T04:18:59.026Z,56.43
2019-06-01T04:21:27.773Z,56.30
2019-06-01T04:23:56.476Z,54.40
2019-06-01T04:26:25.176Z,55.58
2019-06-01T04:28:53.928Z,55.09
2019-06-01T04:31:22.638Z,54.82
2019-06-01T04:33:51.345Z,53.46
2019-06-01T04:36:20.089Z,52.94
2019-06-01T04:38:48.792Z,53.25
2019-06-01T04:41:17.509Z,52.93
2019-06-01T04:43:46.258Z,51.68
2019-06-01T04:46:14.969Z,52.58
2019-06-01T04:48:43.677Z,52.67
2019-06-01T04:51:13.471Z,53.54
2019-06-01T04:53:42.322Z,52.31
2019-06-01T04:56:11.204Z,53.30
2019-06-01T04:58:39.943Z,52.54
2019-06-01T05:01:09.008Z,53.23
2019-06-01T05:03:37.824Z,53.82
2019-06-01T05:06:07.173Z,53.14
2019-06-01T05:08:35.949Z,52.33
2019-06-01T05:11:06.624Z,52.52
2019-06-01T05:13:35.212Z,51.51
2019-06-01T05:16:04.118Z,53.26
2019-06-01T05:18:32.820Z,52.57
2019-06-01T05:21:01.564Z,51.38
2019-06-01T05:23:30.267Z,51.82
2019-06-01T05:25:59.066Z,51.02
2019-06-01T05:28:27.820Z,51.39
2019-06-01T05:30:56.514Z,51.10
2019-06-01T05:33:36.853Z,52.19
2019-06-01T05:35:55.700Z,51.67
2019-06-01T05:38:24.399Z,51.28
2019-06-01T05:40:53.118Z,52.58
2019-06-01T05:43:21.870Z,50.92
2019-06-01T05:45:50.581Z,48.57
2019-06-01T05:48:25.158Z,49.14
2019-06-01T05:50:49.744Z,50.06
2019-06-01T05:53:19.875Z,50.44
2019-06-01T05:55:48.894Z,49.92
2019-06-01T05:58:17.600Z,48.95
2019-06-01T06:00:47.039Z,49.43
2019-06-01T06:03:20.419Z,48.93
2019-06-01T06:05:46.217Z,49.48
2019-06-01T06:08:15.974Z,48.80
2019-06-01T06:10:45.046Z,49.41
2019-06-01T06:13:13.749Z,53.42
2019-06-01T06:15:42.457Z,53.42
2019-06-01T06:18:11.625Z,55.83
2019-06-01T06:20:40.479Z,56.98
2019-06-01T06:23:09.187Z,58.58
2019-06-01T06:25:39.641Z,58.42
2019-06-01T06:28:08.328Z,58.18
2019-06-01T06:30:37.173Z,58.94
2019-06-01T06:33:06.240Z,57.73
2019-06-01T06:35:34.942Z,58.20
2019-06-01T06:38:03.659Z,59.50
2019-06-01T06:40:32.367Z,58.30
2019-06-01T06:43:01.117Z,60.00
2019-06-01T06:45:29.820Z,57.99
2019-06-01T06:47:58.529Z,58.88
2019-06-01T06:50:28.769Z,58.68
2019-06-01T06:52:57.480Z,59.35
2019-06-01T06:55:26.277Z,58.66
2019-06-01T06:57:54.985Z,60.67
2019-06-01T07:00:24.815Z,58.65
2019-06-01T07:02:53.684Z,57.76
2019-06-01T07:05:23.436Z,58.02
2019-06-01T07:07:52.352Z,59.25
2019-06-01T07:10:22.094Z,59.08
2019-06-01T07:12:51.457Z,59.25
2019-06-01T07:15:21.403Z,57.65
2019-06-01T07:17:50.262Z,57.91
2019-06-01T07:20:19.537Z,56.56
2019-06-01T07:22:48.285Z,57.04
2019-06-01T07:25:16.980Z,57.80
2019-06-01T07:27:45.765Z,55.93
2019-06-01T07:30:14.766Z,56.29
2019-06-01T07:32:43.473Z,57.74
2019-06-01T07:35:12.415Z,56.91
2019-06-01T07:37:41.130Z,55.98
2019-06-01T07:40:13.375Z,56.66
2019-06-01T07:42:41.879Z,56.68
2019-06-01T07:45:10.658Z,57.46
2019-06-01T07:47:39.386Z,56.28
2019-06-01T07:50:08.211Z,56.73
2019-06-01T07:52:36.988Z,58.37
2019-06-01T07:55:06.296Z,56.75
2019-06-01T07:57:35.031Z,56.72
2019-06-01T08:00:06.328Z,57.44
2019-06-01T08:02:35.055Z,57.79
2019-06-01T08:05:05.277Z,57.63
2019-06-01T08:07:34.046Z,56.67
2019-06-01T08:10:02.862Z,56.28
2019-06-01T08:12:31.730Z,55.81
2019-06-01T08:15:00.890Z,56.82
2019-06-01T08:17:30.103Z,56.54
2019-06-01T08:19:59.122Z,55.80
2019-06-01T08:22:28.036Z,55.93
2019-06-01T08:24:56.758Z,56.42
2019-06-01T08:27:26.518Z,53.98
2019-06-01T08:29:55.391Z,55.01
2019-06-01T08:32:24.563Z,54.23
2019-06-01T08:35:07.299Z,56.86
2019-06-01T08:37:25.084Z,54.16
2019-06-01T08:39:53.892Z,54.09
2019-06-01T08:42:23.451Z,54.99
2019-06-01T08:44:52.254Z,54.20
2019-06-01T08:47:21.026Z,56.42
2019-06-01T08:49:49.731Z,54.50
2019-06-01T08:52:18.436Z,52.80
2019-06-01T08:54:47.157Z,54.78
2019-06-01T08:57:15.874Z,55.31
2019-06-01T08:59:44.629Z,52.90
2019-06-01T09:02:13.340Z,51.45
2019-06-01T09:04:42.042Z,51.33
2019-06-01T09:07:11.028Z,52.68
2019-06-01T09:09:39.794Z,52.98
2019-06-01T09:12:08.540Z,54.13
2019-06-01T09:14:37.254Z,52.38
2019-06-01T09:17:05.955Z,52.29
2019-06-01T09:19:35.692Z,53.50
2019-06-01T09:22:04.707Z,51.98
2019-06-01T09:24:33.977Z,53.68
2019-06-01T09:27:02.854Z,54.55
2019-06-01T09:29:32.073Z,53.67
2019-06-01T09:32:01.023Z,52.55
2019-06-01T09:34:30.469Z,52.18
2019-06-01T09:36:59.240Z,51.05
2019-06-01T09:39:29.081Z,54.19
2019-06-01T09:41:57.837Z,50.15
2019-06-01T09:44:26.933Z,51.62
2019-06-01T09:46:55.676Z,50.99
2019-06-01T09:49:24.382Z,50.34
2019-06-01T09:51:53.128Z,50.55
2019-06-01T09:54:21.842Z,49.68
2019-06-01T09:56:50.557Z,52.81
2019-06-01T09:59:19.277Z,50.23
2019-06-01T10:01:48.052Z,51.29
2019-06-01T10:04:16.819Z,50.37
2019-06-01T10:06:45.520Z,51.24
2019-06-01T10:09:14.243Z,51.63
2019-06-01T10:11:42.952Z,50.65
2019-06-01T10:14:11.668Z,51.69
2019-06-01T10:16:40.385Z,51.82
2019-06-01T10:19:09.122Z,51.46
2019-06-01T10:21:38.114Z,52.22
2019-06-01T10:24:06.934Z,52.22
2019-06-01T10:26:35.808Z,51.83
2019-06-01T10:29:04.693Z,51.77
2019-06-01T10:31:34.740Z,51.03
2019-06-01T10:34:03.764Z,51.81
2019-06-01T10:36:33.965Z,50.42
2019-06-01T10:39:02.761Z,49.85
2019-06-01T10:41:31.471Z,51.53
2019-06-01T10:44:00.227Z,52.36
2019-06-01T10:46:28.933Z,50.45
2019-06-01T10:48:57.633Z,50.17
2019-06-01T10:51:26.398Z,48.66
2019-06-01T10:53:55.123Z,50.57
2019-06-01T10:56:23.822Z,50.78
2019-06-01T10:59:00.039Z,51.07
2019-06-01T11:01:23.172Z,50.72
2019-06-01T11:03:52.192Z,51.56
2019-06-01T11:06:36.229Z,51.89
2019-06-01T11:08:51.386Z,50.84
2019-06-01T11:11:20.128Z,50.64
2019-06-01T11:13:48.896Z,50.17
2019-06-01T11:16:17.605Z,50.13
2019-06-01T11:18:46.333Z,49.04
2019-06-01T11:21:15.078Z,48.76
2019-06-01T11:23:46.477Z,49.29
2019-06-01T11:26:14.237Z,49.18
2019-06-01T11:28:44.375Z,48.79
2019-06-01T11:31:13.167Z,49.80
2019-06-01T11:33:42.153Z,50.53
2019-06-01T11:36:11.037Z,48.89
2019-06-01T11:38:40.404Z,50.56
2019-06-01T11:41:09.322Z,49.57
2019-06-01T11:43:38.651Z,49.64
2019-06-01T11:46:07.467Z,49.35
2019-06-01T11:48:37.170Z,49.16
2019-06-01T11:51:05.955Z,51.41
2019-06-01T11:53:35.154Z,48.75
2019-06-01T11:56:03.918Z,48.28
2019-06-01T11:58:32.624Z,50.16
2019-06-01T12:01:07.948Z,50.02
2019-06-01T12:03:37.676Z,49.99
2019-06-01T12:06:06.588Z,48.56
2019-06-01T12:08:35.967Z,49.62
2019-06-01T12:11:04.911Z,50.44
2019-06-01T12:13:33.696Z,47.27
2019-06-01T12:16:02.408Z,47.27
2019-06-01T12:18:31.124Z,48.69
2019-06-01T12:20:59.894Z,50.03
2019-06-01T12:23:28.618Z,50.43
2019-06-01T12:25:57.371Z,51.24
2019-06-01T12:28:26.089Z,50.36
2019-06-01T12:30:54.834Z,50.21
2019-06-01T12:33:23.552Z,51.36
2019-06-01T12:35:52.269Z,52.09
2019-06-01T12:38:21.126Z,52.00
2019-06-01T12:40:49.846Z,52.47
2019-06-01T12:43:18.564Z,51.93
2019-06-01T12:45:47.912Z,51.35
2019-06-01T12:48:16.679Z,51.87
2019-06-01T12:50:49.057Z,50.73
2019-06-01T12:53:16.184Z,50.30
2019-06-01T12:55:45.255Z,51.23
2019-06-01T12:58:14.106Z,50.96
2019-06-01T13:00:43.954Z,50.73
2019-06-01T13:03:12.850Z,49.99
2019-06-01T13:05:41.633Z,48.58
2019-06-01T13:08:10.360Z,50.17
2019-06-01T13:10:39.122Z,50.55
2019-06-01T13:13:07.827Z,50.86
2019-06-01T13:15:36.530Z,49.79
2019-06-01T13:18:05.273Z,50.02
2019-06-01T13:20:33.988Z,50.28
2019-06-01T13:23:02.689Z,49.69
2019-06-01T13:25:31.396Z,49.08
2019-06-01T13:28:00.106Z,48.88
2019-06-01T13:30:28.893Z,48.49
2019-06-01T13:32:57.599Z,48.40
2019-06-01T13:35:26.303Z,50.62
2019-06-01T13:38:10.698Z,48.43
2019-06-01T13:40:25.464Z,47.29
2019-06-01T13:42:54.174Z,45.67
2019-06-01T13:45:22.890Z,46.40
2019-06-01T13:47:51.857Z,48.46
2019-06-01T13:50:20.690Z,48.06
2019-06-01T13:52:50.053Z,49.47
2019-06-01T13:55:18.828Z,50.28
2019-06-01T13:57:48.322Z,49.63
2019-06-01T14:00:29.836Z,50.70
2019-06-01T14:02:51.334Z,51.41
2019-06-01T14:05:18.554Z,49.79
2019-06-01T14:07:47.518Z,51.74
2019-06-01T14:10:17.718Z,51.19
2019-06-01T14:12:47.441Z,50.95
2019-06-01T14:15:16.263Z,51.45
2019-06-01T14:17:45.968Z,50.85
2019-06-01T14:20:14.759Z,49.40
2019-06-01T14:22:43.461Z,48.91
2019-06-01T14:25:14.925Z,49.38
2019-06-01T14:27:42.840Z,48.71
2019-06-01T14:30:11.950Z,49.03
2019-06-01T14:32:40.669Z,48.34
2019-06-01T14:35:09.579Z,49.67
2019-06-01T14:37:38.354Z,49.07
2019-06-01T14:40:07.578Z,48.19
2019-06-01T14:42:36.285Z,49.57
2019-06-01T14:45:07.910Z,48.81
2019-06-01T14:47:36.635Z,50.10
2019-06-01T14:50:07.452Z,49.32
2019-06-01T14:52:36.157Z,50.37
2019-06-01T14:55:06.959Z,49.20
2019-06-01T14:57:35.682Z,49.29
2019-06-01T15:00:08.939Z,49.26
2019-06-01T15:02:37.697Z,50.75
2019-06-01T15:05:08.110Z,49.86
2019-06-01T15:07:37.417Z,50.58
2019-06-01T15:10:10.327Z,50.79
2019-06-01T15:12:40.060Z,51.41
2019-06-01T15:15:10.035Z,52.32
2019-06-01T15:17:38.745Z,50.49
2019-06-01T15:20:09.336Z,50.49
2019-06-01T15:22:38.057Z,50.49
2019-06-01T15:25:09.998Z,50.37
2019-06-01T15:27:38.807Z,50.33
2019-06-01T15:30:09.718Z,50.68
2019-06-01T15:32:38.426Z,50.41
2019-06-01T15:35:08.811Z,50.41
2019-06-01T15:37:37.532Z,49.75
2019-06-01T15:40:11.228Z,48.50
2019-06-01T15:42:39.982Z,52.00
2019-06-01T15:45:09.688Z,52.38
2019-06-01T15:47:38.479Z,52.27
2019-06-01T15:50:09.642Z,50.08
2019-06-01T15:52:38.383Z,47.09
2019-06-01T15:55:10.943Z,44.96
2019-06-01T15:57:39.652Z,43.64
2019-06-01T16:00:09.921Z,44.63
2019-06-01T16:02:38.624Z,44.24
2019-06-01T16:05:07.772Z,44.65
2019-06-01T16:07:36.499Z,44.68
2019-06-01T16:10:08.342Z,47.30
2019-06-01T16:12:37.470Z,48.40
2019-06-01T16:15:10.586Z,50.05
2019-06-01T16:17:39.320Z,51.46
2019-06-01T16:20:11.632Z,52.93
2019-06-01T16:22:40.383Z,53.99
2019-06-01T16:25:09.409Z,54.76
2019-06-01T16:27:38.111Z,55.54
2019-06-01T16:30:08.845Z,54.87
2019-06-01T16:32:39.563Z,55.44
2019-06-01T16:35:08.163Z,56.82
2019-06-01T16:37:36.872Z,58.40
2019-06-01T16:40:09.915Z,57.29
2019-06-01T16:42:37.832Z,57.29
2019-06-01T16:45:10.053Z,54.74
2019-06-01T16:47:38.769Z,54.16
2019-06-01T16:50:08.886Z,53.28
2019-06-01T16:52:37.617Z,53.44
2019-06-01T16:55:08.757Z,55.38
2019-06-01T16:57:37.556Z,55.82
2019-06-01T17:00:08.279Z,56.56
2019-06-01T17:02:36.983Z,56.43
2019-06-01T17:05:07.263Z,57.43
2019-06-01T17:07:36.002Z,57.06
2019-06-01T17:10:21.783Z,57.07
2019-06-01T17:12:42.922Z,58.70
2019-06-01T17:15:10.531Z,59.58
2019-06-01T17:17:39.237Z,58.75
2019-06-01T17:20:27.462Z,59.03
2019-06-01T17:22:57.426Z,59.11
2019-06-01T17:25:26.378Z,58.85
2019-06-01T17:27:55.114Z,59.61
2019-06-01T17:30:23.876Z,60.20
2019-06-01T17:32:52.588Z,62.58
2019-06-01T17:35:21.389Z,63.58
2019-06-01T17:37:50.125Z,64.46
2019-06-01T17:40:35.643Z,64.72
2019-06-01T17:42:49.301Z,65.61
2019-06-01T17:45:18.046Z,65.47
2019-06-01T17:47:46.776Z,66.72
2019-06-01T17:50:18.252Z,67.34
2019-06-01T17:52:46.249Z,67.68
2019-06-01T17:55:32.738Z,68.74
2019-06-01T17:58:01.681Z,69.84
2019-06-01T18:00:30.600Z,69.69
2019-06-01T18:02:59.416Z,69.97
2019-06-01T18:05:28.294Z,71.10
2019-06-01T18:07:57.107Z,70.83
2019-06-01T18:10:26.714Z,71.85
2019-06-01T18:12:55.451Z,71.38
2019-06-01T18:15:24.170Z,71.42
2019-06-01T18:17:52.939Z,72.00
2019-06-01T18:20:21.858Z,71.35
2019-06-01T18:22:50.585Z,72.85
2019-06-01T18:25:21.629Z,73.13
2019-06-01T18:27:50.342Z,73.84
2019-06-01T18:30:19.605Z,74.03
2019-06-01T18:32:48.441Z,74.91
2019-06-01T18:35:19.651Z,73.78
2019-06-01T18:37:47.695Z,73.03
2019-06-01T18:40:18.173Z,74.51
2019-06-01T18:42:49.626Z,75.42
2019-06-01T18:45:19.441Z,76.11
2019-06-01T18:47:48.452Z,77.01
2019-06-01T18:50:18.407Z,76.57
2019-06-01T18:52:47.127Z,76.95
2019-06-01T18:55:16.117Z,77.46
2019-06-01T18:57:47.752Z,77.17
2019-06-01T19:00:16.865Z,78.03
2019-06-01T19:02:45.630Z,78.04
2019-06-01T19:05:15.524Z,78.29
2019-06-01T19:07:44.371Z,78.69
2019-06-01T19:10:15.684Z,78.86
2019-06-01T19:12:44.619Z,78.89
2019-06-01T19:15:27.579Z,79.03
2019-06-01T19:17:44.038Z,79.11
2019-06-01T19:20:15.296Z,78.73
2019-06-01T19:22:44.194Z,78.55
2019-06-01T19:25:13.261Z,79.34
2019-06-01T19:27:42.056Z,79.42
2019-06-01T19:30:11.497Z,79.75
2019-06-01T19:32:40.726Z,80.75
2019-06-01T19:35:11.235Z,81.73
2019-06-01T19:37:42.582Z,81.01
2019-06-01T19:40:11.718Z,78.34
2019-06-01T19:42:40.478Z,76.78
2019-06-01T19:45:22.535Z,76.00
2019-06-01T19:47:41.285Z,75.66
2019-06-01T19:50:10.373Z,74.40
2019-06-01T19:52:39.150Z,73.96
2019-06-01T19:55:08.948Z,73.91
2019-06-01T19:57:37.906Z,74.25
2019-06-01T20:00:07.921Z,75.24
2019-06-01T20:02:37.041Z,76.39
2019-06-01T20:05:06.970Z,76.69
2019-06-01T20:07:35.681Z,77.45
2019-06-01T20:10:06.850Z,78.22
2019-06-01T20:12:35.609Z,78.19
2019-06-01T20:15:06.224Z,77.66
2019-06-01T20:17:34.969Z,77.48
2019-06-01T20:20:05.114Z,77.72
2019-06-01T20:22:33.879Z,77.22
2019-06-01T20:25:02.699Z,76.98
2019-06-01T20:27:31.412Z,77.02
2019-06-01T20:30:00.156Z,76.59
2019-06-01T20:32:28.881Z,77.21
2019-06-01T20:34:57.638Z,77.27
2019-06-01T20:37:26.357Z,77.60
2019-06-01T20:39:55.076Z,78.27
2019-06-01T20:42:32.064Z,78.31
2019-06-01T20:44:54.323Z,77.56
2019-06-01T20:47:23.039Z,77.42
2019-06-01T20:49:51.825Z,77.37
2019-06-01T20:52:20.979Z,77.63
2019-06-01T20:54:49.847Z,77.95
2019-06-01T20:57:19.621Z,77.85
2019-06-01T20:59:48.404Z,77.61
2019-06-01T21:02:17.795Z,78.34
2019-06-01T21:04:46.857Z,79.73
2019-06-01T21:07:15.783Z,80.96
2019-06-01T21:09:44.531Z,80.68
2019-06-01T21:12:13.859Z,80.31
2019-06-01T21:14:42.691Z,76.24
2019-06-01T21:17:11.408Z,76.35
2019-06-01T21:19:40.126Z,76.13
2019-06-01T21:22:08.845Z,76.09
2019-06-01T21:24:37.560Z,75.68
2019-06-01T21:27:06.313Z,75.99
2019-06-01T21:29:35.022Z,75.98
2019-06-01T21:32:03.740Z,75.80
2019-06-01T21:34:32.482Z,75.75
2019-06-01T21:37:01.170Z,75.63
2019-06-01T21:39:29.929Z,75.55
2019-06-01T21:41:58.644Z,75.48
2019-06-01T21:44:27.351Z,75.28
2019-06-01T21:46:56.074Z,75.22
2019-06-01T21:49:25.899Z,75.37
2019-06-01T21:51:54.713Z,75.49
2019-06-01T21:54:24.605Z,75.95
2019-06-01T21:56:53.516Z,77.24
2019-06-01T21:59:22.714Z,77.75
2019-06-01T22:01:51.625Z,77.76
2019-06-01T22:04:20.805Z,78.44
2019-06-01T22:06:50.072Z,78.21
2019-06-01T22:09:19.137Z,78.62
2019-06-01T22:11:47.884Z,78.67
2019-06-01T22:14:17.372Z,78.94
2019-06-01T22:16:47.021Z,79.32
2019-06-01T22:19:15.735Z,79.94
2019-06-01T22:21:44.444Z,80.86
2019-06-01T22:24:13.160Z,80.67
2019-06-01T22:26:41.874Z,80.84
2019-06-01T22:29:10.835Z,80.46
2019-06-01T22:31:39.543Z,80.34
2019-06-01T22:34:08.251Z,79.68
2019-06-01T22:36:37.003Z,79.15
2019-06-01T22:39:08.124Z,79.28
2019-06-01T22:41:36.839Z,79.75
2019-06-01T22:44:05.784Z,79.91
2019-06-01T22:46:34.495Z,81.27
2019-06-01T22:49:03.206Z,84.19
2019-06-01T22:51:33.124Z,85.26
2019-06-01T22:54:02.165Z,84.89
2019-06-01T22:56:31.486Z,84.50
2019-06-01T22:59:00.431Z,85.08
2019-06-01T23:01:29.140Z,84.61
2019-06-01T23:03:57.862Z,84.17
2019-06-01T23:06:27.030Z,83.91
2019-06-01T23:08:55.806Z,84.05
2019-06-01T23:11:25.337Z,84.37
2019-06-01T23:13:54.138Z,84.67
2019-06-01T23:16:23.612Z,85.07
2019-06-01T23:18:52.420Z,85.15
2019-06-01T23:21:21.786Z,85.19
2019-06-01T23:23:50.672Z,84.89
2019-06-01T23:26:19.430Z,84.70
2019-06-01T23:28:48.158Z,84.72
2019-06-01T23:31:16.907Z,84.31
2019-06-01T23:33:45.703Z,83.93
2019-06-01T23:36:14.414Z,83.75
2019-06-01T23:38:43.135Z,82.53
2019-06-01T23:41:11.846Z,81.75
2019-06-01T23:43:40.558Z,81.73
2019-06-01T23:46:09.275Z,81.13
2019-06-01T23:48:38.001Z,81.22
2019-06-01T23:51:06.701Z,80.64
2019-06-01T23:53:35.445Z,80.31
2019-06-01T23:56:04.164Z,80.29
2019-06-01T23:58:32.878Z,81.01
